sensor_id;sensor_type;location;lat;lon;timestamp;temperature;humidity
53675;DHT22;39574;50.534;8.500;2023-02-18T00:07:50;11.3;99.9
53675;DHT22;39574;50.534;8.500;2023-02-18T00:13:02;11.3;99.9
53675;DHT22;39574;50.534;8.500;2023-02-18T00:18:05;11.2;99.9
53675;DHT22;39574;50.534;8.500;2023-02-18T00:23:17;11.2;99.9
53675;DHT22;39574;50.534;8.500;2023-02-18T00:32:50;11.2;99.9
53675;DHT22;39574;50.534;8.500;2023-02-18T00:37:56;11.2;99.9
53675;DHT22;39574;50.534;8.500;2023-02-18T00:42:57;11.2;99.9
53675;DHT22;39574;50.534;8.500;2023-02-18T00:48:11;11.2;99.9
53675;DHT22;39574;50.534;8.500;2023-02-18T00:53:13;11.2;99.9
53675;DHT22;39574;50.534;8.500;2023-02-18T00:58:14;11.2;99.9
53675;DHT22;39574;50.534;8.500;2023-02-18T01:07:28;11.1;99.9
53675;DHT22;39574;50.534;8.500;2023-02-18T01:12:42;11.1;99.9
53675;DHT22;39574;50.534;8.500;2023-02-18T01:17:48;11.1;99.9
53675;DHT22;39574;50.534;8.500;2023-02-18T01:23:03;11.1;99.9
53675;DHT22;39574;50.534;8.500;2023-02-18T01:28:07;11.1;99.9
53675;DHT22;39574;50.534;8.500;2023-02-18T01:37:35;11.0;99.9
53675;DHT22;39574;50.534;8.500;2023-02-18T01:42:47;11.0;99.9
53675;DHT22;39574;50.534;8.500;2023-02-18T01:47:59;11.0;99.9
53675;DHT22;39574;50.534;8.500;2023-02-18T01:53:02;11.0;99.9
53675;DHT22;39574;50.534;8.500;2023-02-18T02:02:12;10.9;99.9
53675;DHT22;39574;50.534;8.500;2023-02-18T02:07:25;10.9;99.9
53675;DHT22;39574;50.534;8.500;2023-02-18T02:12:31;10.9;99.9
53675;DHT22;39574;50.534;8.500;2023-02-18T02:17:30;10.9;99.9
53675;DHT22;39574;50.534;8.500;2023-02-18T02:22:50;10.9;99.9
53675;DHT22;39574;50.534;8.500;2023-02-18T02:32:58;10.9;99.9
53675;DHT22;39574;50.534;8.500;2023-02-18T02:42:34;10.9;99.9
53675;DHT22;39574;50.534;8.500;2023-02-18T02:47:32;10.9;99.9
53675;DHT22;39574;50.534;8.500;2023-02-18T02:52:36;10.8;99.9
53675;DHT22;39574;50.534;8.500;2023-02-18T02:57:49;10.8;99.9
53675;DHT22;39574;50.534;8.500;2023-02-18T03:07:18;10.8;99.9
53675;DHT22;39574;50.534;8.500;2023-02-18T03:12:16;10.8;99.9
53675;DHT22;39574;50.534;8.500;2023-02-18T03:17:26;10.7;99.9
53675;DHT22;39574;50.534;8.500;2023-02-18T03:22:28;10.7;99.9
53675;DHT22;39574;50.534;8.500;2023-02-18T03:27:42;10.6;99.9
53675;DHT22;39574;50.534;8.500;2023-02-18T03:37:10;10.4;99.9
53675;DHT22;39574;50.534;8.500;2023-02-18T03:42:12;10.4;99.9
53675;DHT22;39574;50.534;8.500;2023-02-18T03:47:20;10.3;99.9
53675;DHT22;39574;50.534;8.500;2023-02-18T03:52:35;10.2;99.9
53675;DHT22;39574;50.534;8.500;2023-02-18T04:02:06;10.2;99.9
53675;DHT22;39574;50.534;8.500;2023-02-18T04:07:08;10.2;99.9
53675;DHT22;39574;50.534;8.500;2023-02-18T04:12:09;10.2;99.9
53675;DHT22;39574;50.534;8.500;2023-02-18T04:17:22;10.2;99.9
53675;DHT22;39574;50.534;8.500;2023-02-18T04:22:34;10.3;99.9
53675;DHT22;39574;50.534;8.500;2023-02-18T04:27:34;10.3;99.9
53675;DHT22;39574;50.534;8.500;2023-02-18T04:36:57;10.3;99.9
53675;DHT22;39574;50.534;8.500;2023-02-18T04:42:11;10.4;99.9
53675;DHT22;39574;50.534;8.500;2023-02-18T04:47:14;10.4;99.9
53675;DHT22;39574;50.534;8.500;2023-02-18T04:52:23;10.4;99.9
53675;DHT22;39574;50.534;8.500;2023-02-18T04:57:28;10.4;99.9
53675;DHT22;39574;50.534;8.500;2023-02-18T05:06:53;10.4;99.9
53675;DHT22;39574;50.534;8.500;2023-02-18T05:12:01;10.4;99.9
53675;DHT22;39574;50.534;8.500;2023-02-18T05:17:03;10.4;99.9
53675;DHT22;39574;50.534;8.500;2023-02-18T05:22:04;10.3;99.9
53675;DHT22;39574;50.534;8.500;2023-02-18T05:27:05;10.2;99.9
53675;DHT22;39574;50.534;8.500;2023-02-18T05:32:07;10.2;99.9
53675;DHT22;39574;50.534;8.500;2023-02-18T05:37:17;10.2;99.9
53675;DHT22;39574;50.534;8.500;2023-02-18T05:46:27;10.3;99.9
53675;DHT22;39574;50.534;8.500;2023-02-18T05:51:47;10.3;99.9
53675;DHT22;39574;50.534;8.500;2023-02-18T05:57:00;10.4;99.9
53675;DHT22;39574;50.534;8.500;2023-02-18T06:02:12;10.4;99.9
53675;DHT22;39574;50.534;8.500;2023-02-18T06:11:52;10.4;99.9
53675;DHT22;39574;50.534;8.500;2023-02-18T06:16:58;10.4;99.9
53675;DHT22;39574;50.534;8.500;2023-02-18T06:22:04;10.4;99.9
53675;DHT22;39574;50.534;8.500;2023-02-18T06:27:06;10.4;99.9
53675;DHT22;39574;50.534;8.500;2023-02-18T06:32:07;10.4;99.9
53675;DHT22;39574;50.534;8.500;2023-02-18T06:41:34;10.3;99.9
53675;DHT22;39574;50.534;8.500;2023-02-18T06:46:44;10.3;99.9
53675;DHT22;39574;50.534;8.500;2023-02-18T06:51:45;10.2;99.9
53675;DHT22;39574;50.534;8.500;2023-02-18T06:56:45;10.2;99.9
53675;DHT22;39574;50.534;8.500;2023-02-18T07:01:48;10.3;99.9
53675;DHT22;39574;50.534;8.500;2023-02-18T07:06:57;10.3;99.9
53675;DHT22;39574;50.534;8.500;2023-02-18T07:11:58;10.4;99.9
53675;DHT22;39574;50.534;8.500;2023-02-18T07:21:08;10.5;99.9
53675;DHT22;39574;50.534;8.500;2023-02-18T07:26:18;10.5;99.9
53675;DHT22;39574;50.534;8.500;2023-02-18T07:31:22;10.6;99.9
53675;DHT22;39574;50.534;8.500;2023-02-18T07:36:28;10.6;99.9
53675;DHT22;39574;50.534;8.500;2023-02-18T07:41:39;10.6;99.9
53675;DHT22;39574;50.534;8.500;2023-02-18T07:46:49;10.7;99.9
53675;DHT22;39574;50.534;8.500;2023-02-18T07:51:52;10.7;99.9
53675;DHT22;39574;50.534;8.500;2023-02-18T08:01:30;10.7;99.9
53675;DHT22;39574;50.534;8.500;2023-02-18T08:06:45;10.7;99.9
53675;DHT22;39574;50.534;8.500;2023-02-18T08:11:47;10.7;99.9
53675;DHT22;39574;50.534;8.500;2023-02-18T08:16:48;10.7;99.9
53675;DHT22;39574;50.534;8.500;2023-02-18T08:26:24;10.8;99.9
53675;DHT22;39574;50.534;8.500;2023-02-18T08:31:28;10.9;99.9
53675;DHT22;39574;50.534;8.500;2023-02-18T08:36:40;10.9;99.9
53675;DHT22;39574;50.534;8.500;2023-02-18T08:46:10;11.0;99.9
53675;DHT22;39574;50.534;8.500;2023-02-18T08:51:19;10.9;99.9
53675;DHT22;39574;50.534;8.500;2023-02-18T08:56:19;11.0;99.9
53675;DHT22;39574;50.534;8.500;2023-02-18T09:01:20;11.0;99.9
53675;DHT22;39574;50.534;8.500;2023-02-18T09:06:23;11.1;99.9
53675;DHT22;39574;50.534;8.500;2023-02-18T09:11:28;11.1;99.9
53675;DHT22;39574;50.534;8.500;2023-02-18T09:16:31;11.0;99.9
53675;DHT22;39574;50.534;8.500;2023-02-18T09:25:59;11.0;99.9
53675;DHT22;39574;50.534;8.500;2023-02-18T09:31:02;10.9;99.9
53675;DHT22;39574;50.534;8.500;2023-02-18T09:36:15;10.8;99.9
53675;DHT22;39574;50.534;8.500;2023-02-18T09:41:19;10.8;99.9
53675;DHT22;39574;50.534;8.500;2023-02-18T09:46:27;10.9;99.9
53675;DHT22;39574;50.534;8.500;2023-02-18T09:56:07;10.9;99.9
53675;DHT22;39574;50.534;8.500;2023-02-18T10:01:15;10.9;99.9
53675;DHT22;39574;50.534;8.500;2023-02-18T10:06:20;10.9;99.9
53675;DHT22;39574;50.534;8.500;2023-02-18T10:11:21;11.0;99.9
53675;DHT22;39574;50.534;8.500;2023-02-18T10:16:21;11.1;99.9
53675;DHT22;39574;50.534;8.500;2023-02-18T10:25:51;11.1;99.9
53675;DHT22;39574;50.534;8.500;2023-02-18T10:31:01;10.9;99.9
53675;DHT22;39574;50.534;8.500;2023-02-18T10:36:17;10.8;99.9
53675;DHT22;39574;50.534;8.500;2023-02-18T10:41:19;10.8;99.9
53675;DHT22;39574;50.534;8.500;2023-02-18T10:46:19;10.7;99.9
53675;DHT22;39574;50.534;8.500;2023-02-18T10:55:42;11.2;99.9
53675;DHT22;39574;50.534;8.500;2023-02-18T11:00:43;11.5;99.9
53675;DHT22;39574;50.534;8.500;2023-02-18T11:05:57;11.5;99.9
53675;DHT22;39574;50.534;8.500;2023-02-18T11:11:08;11.5;99.9
53675;DHT22;39574;50.534;8.500;2023-02-18T11:16:12;11.7;99.9
53675;DHT22;39574;50.534;8.500;2023-02-18T11:25:37;11.8;99.9
53675;DHT22;39574;50.534;8.500;2023-02-18T11:30:48;11.9;99.9
53675;DHT22;39574;50.534;8.500;2023-02-18T11:35:50;11.9;99.9
53675;DHT22;39574;50.534;8.500;2023-02-18T11:41:05;11.9;99.9
53675;DHT22;39574;50.534;8.500;2023-02-18T11:46:08;11.9;99.9
53675;DHT22;39574;50.534;8.500;2023-02-18T11:55:14;11.9;99.9
53675;DHT22;39574;50.534;8.500;2023-02-18T12:00:43;12.0;99.9
53675;DHT22;39574;50.534;8.500;2023-02-18T12:05:47;11.9;99.9
53675;DHT22;39574;50.534;8.500;2023-02-18T12:11:00;11.7;99.9
53675;DHT22;39574;50.534;8.500;2023-02-18T12:20:33;11.5;99.9
53675;DHT22;39574;50.534;8.500;2023-02-18T12:25:42;11.3;99.9
53675;DHT22;39574;50.534;8.500;2023-02-18T12:31:01;11.2;99.9
53675;DHT22;39574;50.534;8.500;2023-02-18T12:40:35;11.4;99.9
53675;DHT22;39574;50.534;8.500;2023-02-18T12:45:44;11.6;99.9
53675;DHT22;39574;50.534;8.500;2023-02-18T12:50:48;11.6;99.9
53675;DHT22;39574;50.534;8.500;2023-02-18T13:00:37;11.4;99.9
53675;DHT22;39574;50.534;8.500;2023-02-18T13:05:46;11.1;99.9
53675;DHT22;39574;50.534;8.500;2023-02-18T13:11:03;10.9;99.9
53675;DHT22;39574;50.534;8.500;2023-02-18T13:15:46;10.9;99.9
53675;DHT22;39574;50.534;8.500;2023-02-18T13:20:49;10.8;99.9
53675;DHT22;39574;50.534;8.500;2023-02-18T13:30:12;10.9;99.9
53675;DHT22;39574;50.534;8.500;2023-02-18T13:35:16;10.8;99.9
53675;DHT22;39574;50.534;8.500;2023-02-18T13:40:16;10.8;99.9
53675;DHT22;39574;50.534;8.500;2023-02-18T13:45:23;10.6;99.9
53675;DHT22;39574;50.534;8.500;2023-02-18T13:50:28;10.5;99.9
53675;DHT22;39574;50.534;8.500;2023-02-18T13:55:40;10.4;99.9
53675;DHT22;39574;50.534;8.500;2023-02-18T14:05:14;10.4;99.9
53675;DHT22;39574;50.534;8.500;2023-02-18T14:10:23;10.3;99.9
53675;DHT22;39574;50.534;8.500;2023-02-18T14:15:53;10.3;99.9
53675;DHT22;39574;50.534;8.500;2023-02-18T14:20:41;10.4;99.9
53675;DHT22;39574;50.534;8.500;2023-02-18T14:25:35;10.4;99.9
53675;DHT22;39574;50.534;8.500;2023-02-18T14:35:19;10.4;99.9
53675;DHT22;39574;50.534;8.500;2023-02-18T14:40:20;10.4;99.9
53675;DHT22;39574;50.534;8.500;2023-02-18T14:45:28;10.3;99.9
53675;DHT22;39574;50.534;8.500;2023-02-18T14:54:42;10.2;99.9
53675;DHT22;39574;50.534;8.500;2023-02-18T14:59:56;10.1;99.9
53675;DHT22;39574;50.534;8.500;2023-02-18T15:05:07;10.1;99.9
53675;DHT22;39574;50.534;8.500;2023-02-18T15:10:03;10.1;99.9
53675;DHT22;39574;50.534;8.500;2023-02-18T15:15:08;10.0;99.9
53675;DHT22;39574;50.534;8.500;2023-02-18T15:20:18;9.9;99.9
53675;DHT22;39574;50.534;8.500;2023-02-18T15:25:22;9.9;99.9
53675;DHT22;39574;50.534;8.500;2023-02-18T15:34:49;9.8;99.9
53675;DHT22;39574;50.534;8.500;2023-02-18T15:39:53;9.7;99.9
53675;DHT22;39574;50.534;8.500;2023-02-18T15:45:03;9.7;99.9
53675;DHT22;39574;50.534;8.500;2023-02-18T15:50:18;9.6;99.9
53675;DHT22;39574;50.534;8.500;2023-02-18T15:59:45;9.6;99.9
53675;DHT22;39574;50.534;8.500;2023-02-18T16:04:57;9.6;99.9
53675;DHT22;39574;50.534;8.500;2023-02-18T16:10:14;9.6;99.9
53675;DHT22;39574;50.534;8.500;2023-02-18T16:15:11;9.6;99.9
53675;DHT22;39574;50.534;8.500;2023-02-18T16:24:49;9.6;99.9
53675;DHT22;39574;50.534;8.500;2023-02-18T16:29:55;9.6;99.9
53675;DHT22;39574;50.534;8.500;2023-02-18T16:35:03;9.6;99.9
53675;DHT22;39574;50.534;8.500;2023-02-18T16:44:59;9.6;99.9
53675;DHT22;39574;50.534;8.500;2023-02-18T16:50:00;9.6;99.9
53675;DHT22;39574;50.534;8.500;2023-02-18T16:55:04;9.5;99.9
53675;DHT22;39574;50.534;8.500;2023-02-18T17:04:27;9.5;99.9
53675;DHT22;39574;50.534;8.500;2023-02-18T17:09:29;9.5;99.9
53675;DHT22;39574;50.534;8.500;2023-02-18T17:14:30;9.5;99.9
53675;DHT22;39574;50.534;8.500;2023-02-18T17:19:38;9.5;99.9
53675;DHT22;39574;50.534;8.500;2023-02-18T17:24:43;9.5;99.9
53675;DHT22;39574;50.534;8.500;2023-02-18T17:29:52;9.4;99.9
53675;DHT22;39574;50.534;8.500;2023-02-18T17:34:54;9.4;99.9
53675;DHT22;39574;50.534;8.500;2023-02-18T17:44:21;9.4;99.9
53675;DHT22;39574;50.534;8.500;2023-02-18T17:49:33;9.4;99.9
53675;DHT22;39574;50.534;8.500;2023-02-18T17:54:34;9.4;99.9
53675;DHT22;39574;50.534;8.500;2023-02-18T17:59:35;9.4;99.9
53675;DHT22;39574;50.534;8.500;2023-02-18T18:04:35;9.4;99.9
53675;DHT22;39574;50.534;8.500;2023-02-18T18:09:42;9.3;99.9
53675;DHT22;39574;50.534;8.500;2023-02-18T18:18:55;9.4;99.9
53675;DHT22;39574;50.534;8.500;2023-02-18T18:24:00;9.4;99.9
53675;DHT22;39574;50.534;8.500;2023-02-18T18:29:05;9.4;99.9
53675;DHT22;39574;50.534;8.500;2023-02-18T18:39:40;9.4;99.9
53675;DHT22;39574;50.534;8.500;2023-02-18T18:49:08;9.4;99.9
53675;DHT22;39574;50.534;8.500;2023-02-18T18:54:18;9.3;99.9
53675;DHT22;39574;50.534;8.500;2023-02-18T18:59:22;9.3;99.9
53675;DHT22;39574;50.534;8.500;2023-02-18T19:04:32;9.3;99.9
53675;DHT22;39574;50.534;8.500;2023-02-18T19:13:54;9.3;99.9
53675;DHT22;39574;50.534;8.500;2023-02-18T19:19:16;9.3;99.9
53675;DHT22;39574;50.534;8.500;2023-02-18T19:24:27;9.3;99.9
53675;DHT22;39574;50.534;8.500;2023-02-18T19:29:32;9.3;99.9
53675;DHT22;39574;50.534;8.500;2023-02-18T19:38:58;9.3;99.9
53675;DHT22;39574;50.534;8.500;2023-02-18T19:44:09;9.3;99.9
53675;DHT22;39574;50.534;8.500;2023-02-18T19:49:24;9.3;99.9
53675;DHT22;39574;50.534;8.500;2023-02-18T19:59:18;9.3;99.9
53675;DHT22;39574;50.534;8.500;2023-02-18T20:04:25;9.3;99.9
53675;DHT22;39574;50.534;8.500;2023-02-18T20:13:42;9.3;99.9
53675;DHT22;39574;50.534;8.500;2023-02-18T20:18:45;9.3;99.9
53675;DHT22;39574;50.534;8.500;2023-02-18T20:23:52;9.3;99.9
53675;DHT22;39574;50.534;8.500;2023-02-18T20:29:03;9.3;99.9
53675;DHT22;39574;50.534;8.500;2023-02-18T20:34:15;9.3;99.9
53675;DHT22;39574;50.534;8.500;2023-02-18T20:43:42;9.3;99.9
53675;DHT22;39574;50.534;8.500;2023-02-18T20:48:44;9.3;99.9
53675;DHT22;39574;50.534;8.500;2023-02-18T20:53:53;9.3;99.9
53675;DHT22;39574;50.534;8.500;2023-02-18T20:58:58;9.3;99.9
53675;DHT22;39574;50.534;8.500;2023-02-18T21:04:06;9.3;99.9
53675;DHT22;39574;50.534;8.500;2023-02-18T21:09:07;9.2;99.9
53675;DHT22;39574;50.534;8.500;2023-02-18T21:14:06;9.3;99.9
53675;DHT22;39574;50.534;8.500;2023-02-18T21:19:11;9.3;99.9
53675;DHT22;39574;50.534;8.500;2023-02-18T21:28:34;9.3;99.9
53675;DHT22;39574;50.534;8.500;2023-02-18T21:33:43;9.2;99.9
53675;DHT22;39574;50.534;8.500;2023-02-18T21:38:49;9.2;99.9
53675;DHT22;39574;50.534;8.500;2023-02-18T21:43:48;9.2;99.9
53675;DHT22;39574;50.534;8.500;2023-02-18T21:48:58;9.1;99.9
53675;DHT22;39574;50.534;8.500;2023-02-18T21:54:00;9.0;99.9
53675;DHT22;39574;50.534;8.500;2023-02-18T22:03:24;9.1;99.9
53675;DHT22;39574;50.534;8.500;2023-02-18T22:08:40;9.1;99.9
53675;DHT22;39574;50.534;8.500;2023-02-18T22:13:51;9.1;99.9
53675;DHT22;39574;50.534;8.500;2023-02-18T22:23:21;9.1;99.9
53675;DHT22;39574;50.534;8.500;2023-02-18T22:28:24;9.1;99.9
53675;DHT22;39574;50.534;8.500;2023-02-18T22:33:50;9.1;99.9
53675;DHT22;39574;50.534;8.500;2023-02-18T22:43:12;9.2;99.9
53675;DHT22;39574;50.534;8.500;2023-02-18T22:48:16;9.2;99.9
53675;DHT22;39574;50.534;8.500;2023-02-18T22:53:26;9.1;99.9
53675;DHT22;39574;50.534;8.500;2023-02-18T22:58:29;9.1;99.9
53675;DHT22;39574;50.534;8.500;2023-02-18T23:03:32;9.1;99.9
53675;DHT22;39574;50.534;8.500;2023-02-18T23:08:42;9.0;99.9
53675;DHT22;39574;50.534;8.500;2023-02-18T23:18:10;9.0;99.9
53675;DHT22;39574;50.534;8.500;2023-02-18T23:23:24;9.0;99.9
53675;DHT22;39574;50.534;8.500;2023-02-18T23:28:34;9.0;99.9
53675;DHT22;39574;50.534;8.500;2023-02-18T23:38:17;9.0;99.9
53675;DHT22;39574;50.534;8.500;2023-02-18T23:43:22;9.0;99.9
53675;DHT22;39574;50.534;8.500;2023-02-18T23:48:29;9.0;99.9
53675;DHT22;39574;50.534;8.500;2023-02-18T23:53:35;9.0;99.9
